This is the latest recevied weather packets stored in our database for station/object IW2DGQ-3. If no packets are shown the sender has not sent any weather packets the latest 10 day(s).
| Time | Temp. | Humidity | Pressure | Rain* | Wind** | Luminosity | Snow |
|---|---|---|---|---|---|---|---|
| 1787750393 | 33.33° C | 49% | 1016.8 hPa | - | - | - | - |
| 1787749192 | 33.33° C | 49% | 1016.9 hPa | - | - | - | - |
| 1787747992 | 33.33° C | 49% | 1016.8 hPa | - | - | - | - |
| 1787746792 | 34.44° C | 51% | 1017.2 hPa | - | - | - | - |
| 1787745591 | 33.33° C | 52% | 1017.4 hPa | - | - | - | - |
| 1787744391 | 32.78° C | 53% | 1017.7 hPa | - | - | - | - |
| 1787743191 | 32.22° C | 54% | 1017.7 hPa | - | - | - | - |
| 1787741990 | 32.78° C | 55% | 1017.7 hPa | - | - | - | - |
| 1787740790 | 32.78° C | 56% | 1018 hPa | - | - | - | - |
| 1787739590 | 32.22° C | 56% | 1018 hPa | - | - | - | - |
| 1787738389 | 31.67° C | 55% | 1018.2 hPa | - | - | - | - |
| 1787737189 | 32.22° C | 55% | 1018.3 hPa | - | - | - | - |
| 1787735989 | 35° C | 49% | 1018.4 hPa | - | - | - | - |
| 1787734789 | 37.78° C | 47% | 1018.3 hPa | - | - | - | - |
| 1787733588 | 34.44° C | 51% | 1018.2 hPa | - | - | - | - |
| 1787732388 | 35.56° C | 48% | 1018 hPa | - | - | - | - |
| 1787731188 | 36.67° C | 48% | 1018.2 hPa | - | - | - | - |
| 1787729987 | 36.11° C | 48% | 1017.9 hPa | - | - | - | - |
| 1787728787 | 35° C | 49% | 1017.7 hPa | - | - | - | - |
| 1787727587 | 34.44° C | 50% | 1017.8 hPa | - | - | - | - |
| 1787726386 | 34.44° C | 53% | 1017.5 hPa | - | - | - | - |
| 1787725186 | 32.78° C | 56% | 1017.5 hPa | - | - | - | - |
| 1787723986 | 31.67° C | 61% | 1017.5 hPa | - | - | - | - |
| 1787722785 | 29.44° C | 75% | 1017.4 hPa | - | - | - | - |
| 1787721585 | 22.22° C | 90% | 1017.4 hPa | - | - | - | - |
* Rain since midnight (hover to see other rain measurements)
** Current wind speed in m/s (hover to see current wind gust speed)